Time;durP1;ratioP1;P1;durP2;ratioP2;P2;SDS_P1;SDS_P2;PMS_P1;PMS_P2;Temp;Humidity;BMP_temperature;BMP_pressure;BME280_temperature;BME280_humidity;BME280_pressure;Samples;Min_cycle;Max_cycle;Signal;HPM_P1;HPM_P2
2020/12/27 00:01:44;;;;;;;2.42;2.22;;;;;;;;;;5042546;28;20230;-62
2020/12/27 00:04:11;;;;;;;2.17;1.80;;;;;;;;;;5042320;28;20195;-60
2020/12/27 00:06:37;;;;;;;2.75;2.40;;;;;;;;;;5040595;28;20578;-59
2020/12/27 00:09:04;;;;;;;2.92;2.63;;;;;;;;;;5039397;28;20202;-59
2020/12/27 00:11:32;;;;;;;3.72;2.20;;;;;;;;;;5039473;28;20272;-60
2020/12/27 00:13:58;;;;;;;2.22;2.00;;;;;;;;;;5040866;28;20721;-59
2020/12/27 00:16:26;;;;;;;4.10;3.00;;;;;;;;;;5038678;28;20697;-59
2020/12/27 00:18:53;;;;;;;8.52;5.60;;;;;;;;;;5038043;28;20206;-59
2020/12/27 00:21:20;;;;;;;5.50;3.75;;;;;;;;;;5037928;28;20226;-59
2020/12/27 00:23:47;;;;;;;3.42;2.10;;;;;;;;;;5038405;28;20205;-59
2020/12/27 00:26:14;;;;;;;2.22;2.03;;;;;;;;;;5040105;28;20198;-60
2020/12/27 00:28:42;;;;;;;3.97;2.42;;;;;;;;;;5038670;28;20198;-59
2020/12/27 00:31:09;;;;;;;3.33;2.30;;;;;;;;;;5037690;28;20234;-60
2020/12/27 00:33:35;;;;;;;5.57;2.72;;;;;;;;;;5037912;28;20286;-60
2020/12/27 00:36:02;;;;;;;2.55;2.35;;;;;;;;;;5037654;28;20233;-59
2020/12/27 00:38:29;;;;;;;2.60;2.40;;;;;;;;;;5037802;28;20693;-60
2020/12/27 00:40:56;;;;;;;2.90;2.40;;;;;;;;;;5036821;28;20221;-60
2020/12/27 00:43:23;;;;;;;2.85;2.60;;;;;;;;;;5035039;28;20207;-61
2020/12/27 00:45:50;;;;;;;3.28;2.85;;;;;;;;;;5034775;28;20202;-60
2020/12/27 00:48:17;;;;;;;3.55;3.10;;;;;;;;;;5035265;28;20202;-60
2020/12/27 00:50:44;;;;;;;3.58;3.10;;;;;;;;;;5034601;28;20621;-62
2020/12/27 00:53:11;;;;;;;3.90;3.00;;;;;;;;;;5034576;28;20206;-60
2020/12/27 00:55:38;;;;;;;2.55;2.35;;;;;;;;;;5034465;28;20276;-61
2020/12/27 00:58:04;;;;;;;4.20;2.60;;;;;;;;;;5034304;28;20202;-60
2020/12/27 01:00:31;;;;;;;3.53;3.15;;;;;;;;;;5034189;28;20206;-60
2020/12/27 01:02:59;;;;;;;2.90;2.63;;;;;;;;;;5034374;28;20698;-60
2020/12/27 01:05:25;;;;;;;5.10;3.58;;;;;;;;;;5035983;28;20204;-60
2020/12/27 01:07:52;;;;;;;3.10;2.80;;;;;;;;;;5035348;28;20203;-60
2020/12/27 01:10:19;;;;;;;3.03;2.60;;;;;;;;;;5036130;28;20626;-60
2020/12/27 01:12:46;;;;;;;3.00;2.70;;;;;;;;;;5035626;28;20305;-61
2020/12/27 01:15:13;;;;;;;3.85;3.45;;;;;;;;;;5035329;28;20222;-60
2020/12/27 01:17:39;;;;;;;4.07;3.17;;;;;;;;;;5034418;28;20659;-61
2020/12/27 01:20:07;;;;;;;3.53;3.13;;;;;;;;;;5034517;28;20202;-60
2020/12/27 01:22:34;;;;;;;4.65;3.25;;;;;;;;;;5035625;28;20632;-61
2020/12/27 01:25:00;;;;;;;4.07;3.10;;;;;;;;;;5035373;28;20194;-61
2020/12/27 01:27:27;;;;;;;3.65;3.05;;;;;;;;;;5035174;28;20697;-61
2020/12/27 01:29:54;;;;;;;3.17;2.88;;;;;;;;;;5034972;28;20248;-61
2020/12/27 01:32:21;;;;;;;3.58;3.00;;;;;;;;;;5034808;28;20257;-61
2020/12/27 01:34:47;;;;;;;3.40;3.10;;;;;;;;;;5034471;28;20218;-61
2020/12/27 01:37:15;;;;;;;3.25;2.65;;;;;;;;;;5035885;28;20210;-61
2020/12/27 01:39:42;;;;;;;3.40;2.45;;;;;;;;;;5035532;28;20252;-61
2020/12/27 01:42:08;;;;;;;3.17;2.88;;;;;;;;;;5035215;28;20718;-60
2020/12/27 01:44:35;;;;;;;3.85;2.50;;;;;;;;;;5034423;28;20203;-60
2020/12/27 01:47:12;;;;;;;2.70;2.38;;;;;;;;;;5035265;28;20207;-61
2020/12/27 01:49:39;;;;;;;3.25;2.40;;;;;;;;;;5035879;28;20195;-61
2020/12/27 01:52:05;;;;;;;3.67;2.95;;;;;;;;;;5039040;28;20218;-62
2020/12/27 01:54:33;;;;;;;3.55;2.10;;;;;;;;;;5038021;28;20229;-61
2020/12/27 01:57:01;;;;;;;3.00;2.70;;;;;;;;;;5037713;28;20673;-60
2020/12/27 01:59:29;;;;;;;3.75;3.33;;;;;;;;;;5037396;28;20202;-60
2020/12/27 02:01:56;;;;;;;2.60;2.30;;;;;;;;;;5037500;28;20729;-61
2020/12/27 02:04:23;;;;;;;4.10;2.65;;;;;;;;;;5037586;28;20198;-61
2020/12/27 02:06:50;;;;;;;3.75;3.03;;;;;;;;;;5037598;28;20202;-61
2020/12/27 02:09:17;;;;;;;3.33;2.88;;;;;;;;;;5037344;28;20209;-60
2020/12/27 02:11:45;;;;;;;3.33;2.40;;;;;;;;;;5037303;28;20222;-61
2020/12/27 02:14:12;;;;;;;4.18;3.00;;;;;;;;;;5037585;28;20253;-60
2020/12/27 02:16:39;;;;;;;3.60;3.10;;;;;;;;;;5037800;28;20281;-60
2020/12/27 02:19:08;;;;;;;3.70;2.85;;;;;;;;;;5037854;28;20198;-60
2020/12/27 02:21:34;;;;;;;3.88;2.53;;;;;;;;;;5042056;28;20218;-60
2020/12/27 02:24:02;;;;;;;4.25;3.00;;;;;;;;;;5044878;28;20600;-60
2020/12/27 02:26:29;;;;;;;3.83;2.70;;;;;;;;;;5046367;28;20198;-61
2020/12/27 02:28:56;;;;;;;3.33;3.03;;;;;;;;;;5047266;28;20207;-60
2020/12/27 02:31:24;;;;;;;3.08;2.78;;;;;;;;;;5046634;28;20225;-61
2020/12/27 02:33:51;;;;;;;3.40;3.10;;;;;;;;;;5048056;28;20199;-61
2020/12/27 02:36:17;;;;;;;6.45;4.00;;;;;;;;;;5046655;28;20241;-61
2020/12/27 02:38:44;;;;;;;3.72;3.40;;;;;;;;;;5044472;28;20202;-60
2020/12/27 02:41:16;;;;;;;8.93;4.90;;;;;;;;;;5043907;28;20218;-60
2020/12/27 02:43:43;;;;;;;4.72;3.20;;;;;;;;;;5044641;28;20206;-60
2020/12/27 02:46:11;;;;;;;4.20;2.78;;;;;;;;;;5042683;28;20207;-61
2020/12/27 02:48:38;;;;;;;4.63;3.53;;;;;;;;;;5041585;28;20206;-61
2020/12/27 02:51:05;;;;;;;3.45;3.15;;;;;;;;;;5041270;28;20223;-60
2020/12/27 02:53:31;;;;;;;4.80;3.67;;;;;;;;;;5042205;28;20206;-60
2020/12/27 02:55:58;;;;;;;4.63;3.35;;;;;;;;;;5042783;28;20272;-61
2020/12/27 02:58:26;;;;;;;4.90;4.18;;;;;;;;;;5043687;28;20203;-60
2020/12/27 03:00:53;;;;;;;5.35;3.53;;;;;;;;;;5042563;28;20242;-59
2020/12/27 03:03:19;;;;;;;3.35;3.05;;;;;;;;;;5038992;28;20213;-60
2020/12/27 03:05:46;;;;;;;3.58;3.25;;;;;;;;;;5036984;28;20205;-60
2020/12/27 03:08:13;;;;;;;3.50;2.85;;;;;;;;;;5036046;28;20206;-60
2020/12/27 03:10:39;;;;;;;3.88;3.42;;;;;;;;;;5036078;28;20210;-60
2020/12/27 03:13:06;;;;;;;3.88;3.47;;;;;;;;;;5035705;28;20675;-60
2020/12/27 03:15:34;;;;;;;4.03;3.03;;;;;;;;;;5036095;28;20225;-59
2020/12/27 03:18:00;;;;;;;4.32;3.05;;;;;;;;;;5037096;28;20202;-60
2020/12/27 03:20:27;;;;;;;4.72;3.20;;;;;;;;;;5036757;28;20229;-60
2020/12/27 03:22:54;;;;;;;3.90;3.08;;;;;;;;;;5036302;28;20581;-60
2020/12/27 03:25:21;;;;;;;3.88;3.40;;;;;;;;;;5035466;28;20206;-60
2020/12/27 03:27:47;;;;;;;3.33;3.03;;;;;;;;;;5035850;28;20210;-61
2020/12/27 03:30:14;;;;;;;5.50;3.38;;;;;;;;;;5036048;28;20202;-60
2020/12/27 03:32:42;;;;;;;3.70;3.30;;;;;;;;;;5035582;28;20775;-60
2020/12/27 03:35:08;;;;;;;3.97;3.20;;;;;;;;;;5036738;28;20300;-60
2020/12/27 03:37:36;;;;;;;4.15;3.40;;;;;;;;;;5036670;28;20202;-60
2020/12/27 03:40:03;;;;;;;3.80;3.50;;;;;;;;;;5036461;28;20635;-60
2020/12/27 03:42:30;;;;;;;4.57;3.35;;;;;;;;;;5037218;28;20231;-60
2020/12/27 03:44:56;;;;;;;6.30;2.90;;;;;;;;;;5036743;28;20667;-60
2020/12/27 03:47:23;;;;;;;3.42;3.03;;;;;;;;;;5036794;28;20205;-60
2020/12/27 03:49:51;;;;;;;4.18;3.75;;;;;;;;;;5036267;28;20209;-60
2020/12/27 03:52:18;;;;;;;4.60;3.55;;;;;;;;;;5037186;28;20226;-60
2020/12/27 03:54:45;;;;;;;4.75;3.55;;;;;;;;;;5035945;28;20230;-59
2020/12/27 03:57:11;;;;;;;3.85;2.95;;;;;;;;;;5036249;28;20210;-61
2020/12/27 03:59:38;;;;;;;3.00;2.80;;;;;;;;;;5035314;28;20203;-60
2020/12/27 04:02:05;;;;;;;3.58;3.25;;;;;;;;;;5034756;28;20230;-61
2020/12/27 04:07:32;;;;;;;3.40;2.97;;;;;;;;;;5112091;27;20926;-60
2020/12/27 04:09:59;;;;;;;3.30;3.00;;;;;;;;;;5111099;28;20234;-59
2020/12/27 04:12:25;;;;;;;2.42;2.22;;;;;;;;;;5112716;28;20320;-60
2020/12/27 04:14:52;;;;;;;4.00;3.10;;;;;;;;;;5113177;28;20199;-60
2020/12/27 04:17:19;;;;;;;3.55;3.25;;;;;;;;;;5111288;28;20204;-60
2020/12/27 04:19:46;;;;;;;5.53;3.58;;;;;;;;;;5113373;28;20195;-60
2020/12/27 04:22:13;;;;;;;5.03;2.92;;;;;;;;;;5111893;28;20220;-60
2020/12/27 04:24:41;;;;;;;4.63;2.83;;;;;;;;;;5111561;28;20211;-61
2020/12/27 04:27:08;;;;;;;2.75;2.50;;;;;;;;;;5111111;28;20757;-61
2020/12/27 04:29:45;;;;;;;2.92;2.70;;;;;;;;;;5111192;28;20243;-60
2020/12/27 04:32:12;;;;;;;3.30;2.60;;;;;;;;;;5111027;28;20226;-60
2020/12/27 04:34:39;;;;;;;3.20;2.90;;;;;;;;;;5111053;28;20199;-60
2020/12/27 04:37:07;;;;;;;3.25;2.85;;;;;;;;;;5110530;28;20196;-61
2020/12/27 04:39:34;;;;;;;3.47;2.80;;;;;;;;;;5110490;28;20223;-60
2020/12/27 04:42:02;;;;;;;3.30;2.80;;;;;;;;;;5110452;28;20224;-60
2020/12/27 04:44:29;;;;;;;3.42;2.50;;;;;;;;;;5110754;28;20260;-60
2020/12/27 04:46:56;;;;;;;4.32;2.20;;;;;;;;;;5110732;28;20219;-61
2020/12/27 04:49:23;;;;;;;3.03;2.63;;;;;;;;;;5111413;28;20699;-61
2020/12/27 04:51:50;;;;;;;3.88;2.80;;;;;;;;;;5110893;28;20708;-59
2020/12/27 04:54:17;;;;;;;2.88;2.40;;;;;;;;;;5110715;28;20200;-60
2020/12/27 04:56:43;;;;;;;2.50;2.30;;;;;;;;;;5110588;28;20207;-60
2020/12/27 04:59:11;;;;;;;3.55;2.30;;;;;;;;;;5110508;28;20200;-60
2020/12/27 05:01:39;;;;;;;2.85;2.65;;;;;;;;;;5109933;28;20257;-60
2020/12/27 05:04:06;;;;;;;2.60;2.40;;;;;;;;;;5110298;28;20203;-60
2020/12/27 05:06:33;;;;;;;5.82;3.45;;;;;;;;;;5110028;28;20279;-60
2020/12/27 05:09:00;;;;;;;4.05;2.45;;;;;;;;;;5110384;28;20548;-60
2020/12/27 05:11:28;;;;;;;2.40;2.20;;;;;;;;;;5110274;28;20220;-59
2020/12/27 05:13:55;;;;;;;3.10;2.35;;;;;;;;;;5110411;28;20200;-59
2020/12/27 05:16:23;;;;;;;2.67;2.35;;;;;;;;;;5110206;28;20207;-60
2020/12/27 05:18:51;;;;;;;2.40;2.20;;;;;;;;;;5096961;28;20200;-60
2020/12/27 05:21:19;;;;;;;2.33;2.13;;;;;;;;;;5097103;28;20231;-61
2020/12/27 05:23:46;;;;;;;3.13;2.20;;;;;;;;;;5096767;28;20227;-61
2020/12/27 05:26:13;;;;;;;2.95;2.15;;;;;;;;;;5096421;28;20224;-60
2020/12/27 05:28:39;;;;;;;2.70;2.50;;;;;;;;;;5096571;28;20672;-61
2020/12/27 05:31:13;;;;;;;2.33;2.13;;;;;;;;;;5096261;28;20224;-60
2020/12/27 05:33:42;;;;;;;3.22;2.10;;;;;;;;;;5096108;28;20664;-60
2020/12/27 05:36:11;;;;;;;3.58;2.28;;;;;;;;;;5096598;28;20192;-60
2020/12/27 05:38:37;;;;;;;2.30;2.05;;;;;;;;;;5096195;28;20200;-59
2020/12/27 05:41:04;;;;;;;2.30;2.10;;;;;;;;;;5096619;28;20224;-59
2020/12/27 05:43:31;;;;;;;2.83;2.20;;;;;;;;;;5096674;28;20200;-61
2020/12/27 05:45:58;;;;;;;2.17;1.98;;;;;;;;;;5101115;28;20561;-59
2020/12/27 05:48:25;;;;;;;2.55;2.20;;;;;;;;;;5101401;28;20204;-61
2020/12/27 05:50:53;;;;;;;2.55;2.35;;;;;;;;;;5096894;28;20656;-60
2020/12/27 05:53:20;;;;;;;4.47;2.47;;;;;;;;;;5096096;28;20683;-61
2020/12/27 05:55:48;;;;;;;2.65;2.03;;;;;;;;;;5096312;28;20204;-59
2020/12/27 05:58:18;;;;;;;2.25;2.03;;;;;;;;;;5096444;28;20200;-60
2020/12/27 06:00:44;;;;;;;2.42;1.70;;;;;;;;;;5096091;28;20295;-60
2020/12/27 06:03:19;;;;;;;2.15;1.95;;;;;;;;;;5096504;28;20207;-59
2020/12/27 06:06:08;;;;;;;2.17;1.88;;;;;;;;;;5097896;28;20720;-59
2020/12/27 06:08:53;;;;;;;2.28;2.05;;;;;;;;;;5097996;28;20686;-59
2020/12/27 06:11:23;;;;;;;2.25;2.00;;;;;;;;;;5102871;28;20220;-60
2020/12/27 06:14:08;;;;;;;2.70;2.35;;;;;;;;;;5101982;28;20338;-59
2020/12/27 06:16:40;;;;;;;2.67;2.20;;;;;;;;;;5100885;28;20188;-60
2020/12/27 06:19:20;;;;;;;4.25;1.88;;;;;;;;;;5103015;28;20184;-59
2020/12/27 06:21:58;;;;;;;3.83;2.17;;;;;;;;;;5100451;28;20224;-60
2020/12/27 06:24:25;;;;;;;2.63;2.38;;;;;;;;;;5098902;28;20181;-59
2020/12/27 06:26:52;;;;;;;2.97;2.33;;;;;;;;;;5097628;28;20564;-59
2020/12/27 06:29:19;;;;;;;2.25;2.05;;;;;;;;;;5094839;28;20200;-60
2020/12/27 06:31:50;;;;;;;2.30;2.10;;;;;;;;;;5095824;28;20215;-60
2020/12/27 06:34:17;;;;;;;3.13;2.20;;;;;;;;;;5095699;28;20185;-58
2020/12/27 06:36:43;;;;;;;2.08;1.90;;;;;;;;;;5096055;28;20258;-60
2020/12/27 06:39:27;;;;;;;2.53;2.33;;;;;;;;;;5095531;28;20196;-60
2020/12/27 06:42:07;;;;;;;2.90;2.00;;;;;;;;;;5095151;28;20220;-60
2020/12/27 06:44:44;;;;;;;2.25;2.05;;;;;;;;;;5094976;28;20200;-60
2020/12/27 06:47:11;;;;;;;4.90;3.63;;;;;;;;;;5094789;28;20722;-60
2020/12/27 06:49:38;;;;;;;2.35;2.15;;;;;;;;;;5095302;28;20216;-61
2020/12/27 06:52:19;;;;;;;3.55;2.40;;;;;;;;;;5095194;28;20216;-60
2020/12/27 06:54:48;;;;;;;3.17;2.40;;;;;;;;;;5094543;28;20231;-60
2020/12/27 06:57:34;;;;;;;2.60;2.40;;;;;;;;;;5094590;28;20219;-60
2020/12/27 07:00:15;;;;;;;4.13;2.50;;;;;;;;;;5094637;28;20287;-60
2020/12/27 07:02:42;;;;;;;3.55;2.17;;;;;;;;;;5094641;28;20224;-59
2020/12/27 07:05:09;;;;;;;2.40;2.20;;;;;;;;;;5094242;28;20205;-60
2020/12/27 07:07:45;;;;;;;4.38;2.00;;;;;;;;;;5095958;28;20254;-60
2020/12/27 07:10:14;;;;;;;2.72;2.25;;;;;;;;;;5094696;28;20668;-60
2020/12/27 07:12:42;;;;;;;3.33;2.63;;;;;;;;;;5095026;28;20548;-60
2020/12/27 07:15:10;;;;;;;2.42;2.22;;;;;;;;;;5094511;28;20664;-59
2020/12/27 07:17:37;;;;;;;2.65;2.08;;;;;;;;;;5094741;28;20196;-60
2020/12/27 07:20:15;;;;;;;2.50;2.25;;;;;;;;;;5094729;28;20204;-58
2020/12/27 07:22:42;;;;;;;2.92;2.50;;;;;;;;;;5094839;28;20643;-59
2020/12/27 07:25:12;;;;;;;2.10;1.90;;;;;;;;;;5099016;28;20569;-60
2020/12/27 07:27:40;;;;;;;4.22;2.22;;;;;;;;;;5097784;28;20207;-60
2020/12/27 07:30:07;;;;;;;2.40;2.20;;;;;;;;;;5098153;28;20204;-59
2020/12/27 07:32:38;;;;;;;3.15;2.35;;;;;;;;;;5099855;28;20699;-59
2020/12/27 07:35:08;;;;;;;3.17;2.30;;;;;;;;;;5095429;28;20187;-58
2020/12/27 07:37:35;;;;;;;2.30;2.10;;;;;;;;;;5095661;28;20244;-59
2020/12/27 07:40:03;;;;;;;2.33;2.13;;;;;;;;;;5094368;28;20204;-59
2020/12/27 07:42:30;;;;;;;2.03;1.80;;;;;;;;;;5094311;28;20328;-61
2020/12/27 07:44:58;;;;;;;2.72;2.00;;;;;;;;;;5094490;28;20230;-59
2020/12/27 07:47:25;;;;;;;1.98;1.88;;;;;;;;;;5094109;28;20227;-60
2020/12/27 07:50:02;;;;;;;4.32;2.42;;;;;;;;;;5094596;28;20249;-60
2020/12/27 07:52:41;;;;;;;2.65;1.85;;;;;;;;;;5094033;28;20220;-60
2020/12/27 07:55:08;;;;;;;4.85;2.35;;;;;;;;;;5094261;28;20238;-59
2020/12/27 07:57:35;;;;;;;2.45;2.25;;;;;;;;;;5094068;28;20603;-60
2020/12/27 08:00:04;;;;;;;2.25;2.05;;;;;;;;;;5093844;28;20207;-60
2020/12/27 08:02:31;;;;;;;2.50;2.30;;;;;;;;;;5093719;28;20220;-60
2020/12/27 08:04:58;;;;;;;2.90;2.25;;;;;;;;;;5093782;28;20223;-57
2020/12/27 08:07:25;;;;;;;1.83;1.73;;;;;;;;;;5093265;28;20243;-60
2020/12/27 08:09:52;;;;;;;2.20;1.70;;;;;;;;;;5093583;28;20721;-61
2020/12/27 08:12:19;;;;;;;3.30;2.45;;;;;;;;;;5093313;28;20687;-61
2020/12/27 08:14:45;;;;;;;3.38;1.90;;;;;;;;;;5093392;28;20276;-61
2020/12/27 08:17:16;;;;;;;2.72;1.90;;;;;;;;;;5094403;28;20277;-60
2020/12/27 08:19:43;;;;;;;3.22;2.38;;;;;;;;;;5094181;28;20526;-60
2020/12/27 08:22:09;;;;;;;2.42;2.03;;;;;;;;;;5093274;28;20707;-60
2020/12/27 08:24:36;;;;;;;2.20;2.05;;;;;;;;;;5093424;28;20204;-60
2020/12/27 08:27:03;;;;;;;2.85;2.00;;;;;;;;;;5093594;28;20227;-60
2020/12/27 08:29:30;;;;;;;1.70;1.58;;;;;;;;;;5093647;28;20204;-60
2020/12/27 08:32:05;;;;;;;3.20;1.85;;;;;;;;;;5093236;28;20707;-59
2020/12/27 08:34:33;;;;;;;2.70;1.70;;;;;;;;;;5093513;28;20196;-58
2020/12/27 08:37:00;;;;;;;2.05;1.85;;;;;;;;;;5093407;28;20192;-61
2020/12/27 08:39:31;;;;;;;4.53;2.10;;;;;;;;;;5093174;28;20264;-60
2020/12/27 08:42:05;;;;;;;1.92;1.50;;;;;;;;;;5093762;28;20323;-60
2020/12/27 08:44:50;;;;;;;3.55;1.60;;;;;;;;;;5093604;28;20203;-60
2020/12/27 08:47:24;;;;;;;4.55;2.15;;;;;;;;;;5093905;28;20299;-59
2020/12/27 08:49:56;;;;;;;2.90;1.90;;;;;;;;;;5094659;28;20280;-60
2020/12/27 08:52:24;;;;;;;3.45;2.00;;;;;;;;;;5095495;28;20220;-60
2020/12/27 08:54:53;;;;;;;2.05;1.85;;;;;;;;;;5098886;28;20207;-59
2020/12/27 08:57:20;;;;;;;1.90;1.70;;;;;;;;;;5098344;28;20203;-59
2020/12/27 08:59:59;;;;;;;4.55;2.00;;;;;;;;;;5099801;28;20196;-59
2020/12/27 09:02:26;;;;;;;1.80;1.70;;;;;;;;;;5099140;28;20596;-60
2020/12/27 09:05:04;;;;;;;2.05;1.75;;;;;;;;;;5097836;28;20638;-60
2020/12/27 09:07:32;;;;;;;2.20;1.80;;;;;;;;;;5098619;28;20220;-59
2020/12/27 09:10:04;;;;;;;2.70;1.92;;;;;;;;;;5098376;28;20200;-60
2020/12/27 09:12:30;;;;;;;2.63;1.98;;;;;;;;;;5097310;28;20220;-59
2020/12/27 09:14:57;;;;;;;2.60;2.40;;;;;;;;;;5097284;28;20207;-59
2020/12/27 09:17:27;;;;;;;1.80;1.70;;;;;;;;;;5097146;28;20200;-60
2020/12/27 09:19:55;;;;;;;1.80;1.70;;;;;;;;;;5096899;28;20676;-60
2020/12/27 09:22:23;;;;;;;2.13;1.55;;;;;;;;;;5096463;28;20220;-60
2020/12/27 09:25:04;;;;;;;2.47;1.70;;;;;;;;;;5096483;28;20206;-60
2020/12/27 09:27:31;;;;;;;2.03;1.83;;;;;;;;;;5096975;28;20220;-60
2020/12/27 09:30:00;;;;;;;2.05;1.67;;;;;;;;;;5096477;28;20204;-60
2020/12/27 09:32:32;;;;;;;2.05;1.80;;;;;;;;;;5096224;28;20216;-60
2020/12/27 09:34:59;;;;;;;1.90;1.80;;;;;;;;;;5096448;28;20184;-60
2020/12/27 09:37:31;;;;;;;2.00;1.70;;;;;;;;;;5096182;28;20545;-60
2020/12/27 09:39:58;;;;;;;1.75;1.65;;;;;;;;;;5096075;28;20644;-60
2020/12/27 09:42:26;;;;;;;1.80;1.70;;;;;;;;;;5095864;28;20242;-60
2020/12/27 09:44:53;;;;;;;2.00;1.70;;;;;;;;;;5096123;28;20204;-59
2020/12/27 09:47:24;;;;;;;3.38;1.88;;;;;;;;;;5096046;28;20657;-59
2020/12/27 09:50:01;;;;;;;2.85;2.00;;;;;;;;;;5096168;28;20207;-60
2020/12/27 09:52:28;;;;;;;1.52;1.42;;;;;;;;;;5096160;28;20216;-60
2020/12/27 09:54:55;;;;;;;2.38;1.70;;;;;;;;;;5096038;28;20204;-60
2020/12/27 09:57:22;;;;;;;4.20;1.92;;;;;;;;;;5096112;28;20200;-59
2020/12/27 09:59:49;;;;;;;2.15;2.00;;;;;;;;;;5095721;28;20204;-60
2020/12/27 10:02:17;;;;;;;3.50;1.80;;;;;;;;;;5095680;28;20220;-59
2020/12/27 10:04:43;;;;;;;1.90;1.80;;;;;;;;;;5096152;28;20202;-60
2020/12/27 10:07:10;;;;;;;2.22;1.77;;;;;;;;;;5095175;28;20605;-60
2020/12/27 10:09:38;;;;;;;2.10;1.90;;;;;;;;;;5095562;28;20672;-60
2020/12/27 10:12:05;;;;;;;1.90;1.60;;;;;;;;;;5095704;28;20216;-60
2020/12/27 10:14:32;;;;;;;1.70;1.60;;;;;;;;;;5095918;28;20208;-60
2020/12/27 10:17:00;;;;;;;2.40;1.80;;;;;;;;;;5096052;28;20250;-60
2020/12/27 10:19:27;;;;;;;2.25;1.88;;;;;;;;;;5096685;28;20303;-60
2020/12/27 10:21:54;;;;;;;2.10;1.90;;;;;;;;;;5096031;28;20289;-59
2020/12/27 10:24:23;;;;;;;1.92;1.67;;;;;;;;;;5095802;28;20212;-60
2020/12/27 10:26:50;;;;;;;2.30;2.10;;;;;;;;;;5095646;28;20756;-61
2020/12/27 10:29:17;;;;;;;1.63;1.52;;;;;;;;;;5095394;28;20209;-60
2020/12/27 10:31:44;;;;;;;2.00;1.52;;;;;;;;;;5094987;28;20235;-58
2020/12/27 10:34:12;;;;;;;1.77;1.67;;;;;;;;;;5095167;28;20204;-60
2020/12/27 10:36:38;;;;;;;2.45;1.42;;;;;;;;;;5095276;28;20200;-59
2020/12/27 10:39:05;;;;;;;2.10;1.90;;;;;;;;;;5095746;28;20204;-60
2020/12/27 10:41:32;;;;;;;2.45;1.52;;;;;;;;;;5095744;28;20227;-60
2020/12/27 10:43:59;;;;;;;1.85;1.45;;;;;;;;;;5095037;28;20672;-60
2020/12/27 10:46:26;;;;;;;1.63;1.50;;;;;;;;;;5095364;28;20224;-60
2020/12/27 10:48:53;;;;;;;1.55;1.23;;;;;;;;;;5095111;28;20269;-59
2020/12/27 10:51:19;;;;;;;3.30;1.80;;;;;;;;;;5094600;28;20224;-60
2020/12/27 10:53:46;;;;;;;1.65;1.38;;;;;;;;;;5094674;28;20200;-60
2020/12/27 10:56:13;;;;;;;1.80;1.70;;;;;;;;;;5094864;28;20277;-61
2020/12/27 10:58:40;;;;;;;1.98;1.63;;;;;;;;;;5094443;28;20204;-60
2020/12/27 11:01:07;;;;;;;1.70;1.60;;;;;;;;;;5094238;28;20227;-60
2020/12/27 11:03:34;;;;;;;1.55;1.40;;;;;;;;;;5094867;28;20648;-59
2020/12/27 11:06:01;;;;;;;2.47;1.58;;;;;;;;;;5094187;28;20212;-61
2020/12/27 11:08:30;;;;;;;1.98;1.60;;;;;;;;;;5094716;28;20197;-59
2020/12/27 11:10:56;;;;;;;2.13;1.70;;;;;;;;;;5094472;28;20265;-60
2020/12/27 11:13:23;;;;;;;2.63;1.67;;;;;;;;;;5094623;28;20200;-60
2020/12/27 11:15:50;;;;;;;2.15;1.63;;;;;;;;;;5094108;28;20200;-60
2020/12/27 11:18:17;;;;;;;2.00;1.60;;;;;;;;;;5094120;28;20668;-59
2020/12/27 11:20:44;;;;;;;1.50;1.10;;;;;;;;;;5094277;28;20211;-61
2020/12/27 11:23:11;;;;;;;1.73;1.63;;;;;;;;;;5094457;28;20201;-60
2020/12/27 11:25:38;;;;;;;2.67;1.50;;;;;;;;;;5094450;28;20196;-60
2020/12/27 11:28:04;;;;;;;2.70;1.48;;;;;;;;;;5093814;28;20703;-59
2020/12/27 11:30:31;;;;;;;3.75;1.88;;;;;;;;;;5094823;28;20664;-59
2020/12/27 11:32:58;;;;;;;2.10;1.65;;;;;;;;;;5095549;28;20616;-60
2020/12/27 11:35:25;;;;;;;2.25;1.75;;;;;;;;;;5095422;28;20257;-60
2020/12/27 11:37:53;;;;;;;1.90;1.70;;;;;;;;;;5095693;28;20203;-60
2020/12/27 11:40:19;;;;;;;1.92;1.60;;;;;;;;;;5095058;28;20294;-61
2020/12/27 11:42:46;;;;;;;1.85;1.73;;;;;;;;;;5096363;28;20231;-59
2020/12/27 11:45:13;;;;;;;1.70;1.45;;;;;;;;;;5098344;28;20196;-61
2020/12/27 11:47:40;;;;;;;2.50;1.55;;;;;;;;;;5098726;28;20557;-60
2020/12/27 11:50:07;;;;;;;2.05;1.85;;;;;;;;;;5100095;28;20204;-60
2020/12/27 11:52:34;;;;;;;2.83;1.75;;;;;;;;;;5099370;28;20224;-60
2020/12/27 11:55:01;;;;;;;2.17;1.67;;;;;;;;;;5100593;28;20211;-60
2020/12/27 11:57:28;;;;;;;1.90;1.65;;;;;;;;;;5098696;28;20199;-60
2020/12/27 11:59:55;;;;;;;2.35;1.50;;;;;;;;;;5096097;28;20679;-60
2020/12/27 12:02:21;;;;;;;1.90;1.40;;;;;;;;;;5093889;28;20226;-59
2020/12/27 12:04:48;;;;;;;1.70;1.60;;;;;;;;;;5094302;28;20257;-60
2020/12/27 12:07:15;;;;;;;2.17;1.60;;;;;;;;;;5094033;28;20223;-60
2020/12/27 12:09:42;;;;;;;2.83;2.00;;;;;;;;;;5093899;28;20196;-59
2020/12/27 12:12:09;;;;;;;3.55;1.90;;;;;;;;;;5093530;28;20273;-60
2020/12/27 12:14:36;;;;;;;1.70;1.42;;;;;;;;;;5094059;28;20208;-60
2020/12/27 12:17:03;;;;;;;2.03;1.60;;;;;;;;;;5094642;28;20204;-60
2020/12/27 12:19:29;;;;;;;1.95;1.80;;;;;;;;;;5095380;28;20208;-59
2020/12/27 12:21:56;;;;;;;2.88;1.95;;;;;;;;;;5096316;28;20269;-60
2020/12/27 12:24:23;;;;;;;2.42;1.85;;;;;;;;;;5095075;28;20668;-61
2020/12/27 12:26:51;;;;;;;2.22;1.73;;;;;;;;;;5094719;28;20220;-60
2020/12/27 12:29:18;;;;;;;3.63;2.10;;;;;;;;;;5098796;28;20208;-59
2020/12/27 12:31:45;;;;;;;1.63;1.52;;;;;;;;;;5097872;28;20235;-61
2020/12/27 12:34:11;;;;;;;2.22;1.88;;;;;;;;;;5098330;28;20200;-60
2020/12/27 12:36:38;;;;;;;2.47;2.00;;;;;;;;;;5097839;28;20208;-60
2020/12/27 12:39:06;;;;;;;2.30;2.10;;;;;;;;;;5097067;28;20200;-59
2020/12/27 12:41:32;;;;;;;1.90;1.75;;;;;;;;;;5097242;28;20712;-59
2020/12/27 12:44:00;;;;;;;2.00;1.80;;;;;;;;;;5097537;28;20204;-58
2020/12/27 12:46:27;;;;;;;1.73;1.63;;;;;;;;;;5099679;28;20249;-60
2020/12/27 12:48:54;;;;;;;2.03;1.60;;;;;;;;;;5097997;28;20411;-59
2020/12/27 12:51:22;;;;;;;2.42;2.03;;;;;;;;;;5098447;28;20224;-58
2020/12/27 12:53:48;;;;;;;2.28;2.08;;;;;;;;;;5099060;28;20252;-59
2020/12/27 12:56:15;;;;;;;3.72;1.90;;;;;;;;;;5099478;28;20203;-60
2020/12/27 12:58:42;;;;;;;2.92;1.77;;;;;;;;;;5098751;28;20201;-60
2020/12/27 13:01:11;;;;;;;1.92;1.67;;;;;;;;;;5097583;28;20711;-60
2020/12/27 13:03:37;;;;;;;2.30;2.10;;;;;;;;;;5097811;28;20197;-60
2020/12/27 13:06:04;;;;;;;2.95;2.25;;;;;;;;;;5097372;28;20225;-61
2020/12/27 13:08:31;;;;;;;1.95;1.80;;;;;;;;;;5097102;28;20197;-61
2020/12/27 13:10:57;;;;;;;2.45;2.13;;;;;;;;;;5096885;28;20247;-60
2020/12/27 13:13:24;;;;;;;2.80;2.13;;;;;;;;;;5096545;28;20710;-59
2020/12/27 13:15:51;;;;;;;5.55;2.03;;;;;;;;;;5096782;28;20208;-60
2020/12/27 13:18:18;;;;;;;2.17;1.92;;;;;;;;;;5097158;28;20196;-60
2020/12/27 13:20:45;;;;;;;2.03;1.85;;;;;;;;;;5096313;28;20197;-60
2020/12/27 13:23:12;;;;;;;2.40;2.20;;;;;;;;;;5096724;28;20583;-60
2020/12/27 13:25:39;;;;;;;2.80;2.47;;;;;;;;;;5096755;28;20661;-60
2020/12/27 13:28:05;;;;;;;3.10;2.90;;;;;;;;;;5097631;28;20220;-60
2020/12/27 13:30:32;;;;;;;4.18;2.58;;;;;;;;;;5097242;28;20200;-60
2020/12/27 13:32:59;;;;;;;2.45;2.25;;;;;;;;;;5097338;28;20208;-60
2020/12/27 13:35:26;;;;;;;3.50;2.40;;;;;;;;;;5097379;28;20618;-58
2020/12/27 13:37:53;;;;;;;2.25;2.03;;;;;;;;;;5097248;28;20192;-59
2020/12/27 13:40:21;;;;;;;1.75;1.60;;;;;;;;;;5101614;28;20287;-59
2020/12/27 13:42:47;;;;;;;2.10;1.90;;;;;;;;;;5103197;28;20220;-59
2020/12/27 13:45:14;;;;;;;2.10;1.90;;;;;;;;;;5103179;28;20204;-59
2020/12/27 13:47:41;;;;;;;1.77;1.67;;;;;;;;;;5103038;28;20216;-60
2020/12/27 13:50:07;;;;;;;2.65;2.20;;;;;;;;;;5103828;28;20201;-60
2020/12/27 13:52:35;;;;;;;2.50;1.90;;;;;;;;;;5102590;28;20784;-60
2020/12/27 13:55:02;;;;;;;2.10;1.90;;;;;;;;;;5100746;28;20255;-60
2020/12/27 13:57:29;;;;;;;3.05;1.77;;;;;;;;;;5100196;28;20614;-60
2020/12/27 13:59:55;;;;;;;2.40;2.08;;;;;;;;;;5099027;28;20204;-60
2020/12/27 14:02:23;;;;;;;2.67;2.38;;;;;;;;;;5099776;28;20225;-59
2020/12/27 14:04:49;;;;;;;2.92;2.28;;;;;;;;;;5097889;28;20550;-59
2020/12/27 14:07:16;;;;;;;2.50;2.30;;;;;;;;;;5096170;28;20223;-59
2020/12/27 14:09:44;;;;;;;10.10;2.70;;;;;;;;;;5096995;28;20208;-59
2020/12/27 14:12:10;;;;;;;3.63;3.33;;;;;;;;;;5096552;28;20231;-61
2020/12/27 14:14:37;;;;;;;2.78;2.20;;;;;;;;;;5098467;28;20204;-60
2020/12/27 14:17:04;;;;;;;3.20;2.80;;;;;;;;;;5098281;28;20200;-60
2020/12/27 14:19:31;;;;;;;2.67;2.42;;;;;;;;;;5097318;28;20197;-60
2020/12/27 14:21:57;;;;;;;6.68;2.80;;;;;;;;;;5096404;28;20232;-60
2020/12/27 14:24:24;;;;;;;4.38;2.58;;;;;;;;;;5097175;28;20234;-60
2020/12/27 14:26:52;;;;;;;3.17;2.70;;;;;;;;;;5097396;28;20258;-59
2020/12/27 14:29:18;;;;;;;2.85;2.65;;;;;;;;;;5097089;28;20269;-60
2020/12/27 14:31:45;;;;;;;2.85;2.38;;;;;;;;;;5097409;28;20220;-60
2020/12/27 14:34:12;;;;;;;4.75;3.10;;;;;;;;;;5098374;28;20207;-61
2020/12/27 14:36:39;;;;;;;4.20;3.03;;;;;;;;;;5097435;28;20212;-59
2020/12/27 14:39:06;;;;;;;3.38;3.08;;;;;;;;;;5095570;28;20205;-60
2020/12/27 14:41:32;;;;;;;3.42;2.78;;;;;;;;;;5095368;28;20220;-60
2020/12/27 14:44:00;;;;;;;3.47;2.75;;;;;;;;;;5095510;28;20234;-61
2020/12/27 14:46:27;;;;;;;3.42;3.05;;;;;;;;;;5095465;28;20216;-59
2020/12/27 14:48:53;;;;;;;3.55;2.72;;;;;;;;;;5095496;28;20663;-59
2020/12/27 14:51:21;;;;;;;3.63;2.78;;;;;;;;;;5094323;28;20231;-60